createdAt,value
2019-02-12T00:02:08.073Z,6.33
2019-02-12T00:05:32.092Z,5.97
2019-02-12T00:09:10.685Z,6.07
2019-02-12T00:12:17.087Z,6.80
2019-02-12T00:15:24.831Z,6.80
2019-02-12T00:18:31.416Z,6.30
2019-02-12T00:28:12.661Z,7.20
2019-02-12T00:43:50.548Z,6.07
2019-02-12T00:47:05.628Z,6.73
2019-02-12T00:49:46.704Z,7.00
2019-02-12T00:52:44.221Z,6.87
2019-02-12T00:58:56.140Z,6.97
2019-02-12T01:05:32.201Z,7.10
2019-02-12T01:08:53.829Z,6.83
2019-02-12T01:14:29.874Z,6.10
2019-02-12T01:18:01.062Z,6.63
2019-02-12T01:21:13.104Z,6.23
2019-02-12T01:27:47.277Z,7.00
2019-02-12T01:34:29.700Z,6.67
2019-02-12T01:48:13.009Z,7.43
2019-02-12T01:51:01.024Z,6.80
2019-02-12T01:53:41.852Z,7.43
2019-02-12T02:03:55.058Z,7.00
2019-02-12T02:10:01.730Z,8.00
2019-02-12T02:16:08.042Z,8.00
2019-02-12T02:33:02.703Z,8.83
2019-02-12T02:39:32.112Z,8.37
2019-02-12T02:42:44.187Z,9.07
2019-02-12T02:47:03.278Z,7.90
2019-02-12T02:50:14.310Z,8.50
2019-02-12T02:52:47.357Z,8.70
2019-02-12T02:56:16.004Z,8.87
2019-02-12T02:59:12.833Z,9.23
2019-02-12T03:12:57.939Z,9.77
2019-02-12T03:16:08.111Z,9.30
2019-02-12T03:19:20.132Z,9.37
2019-02-12T03:22:44.124Z,8.30
2019-02-12T03:35:27.333Z,8.90
2019-02-12T03:52:12.971Z,9.53
2019-02-12T03:55:28.637Z,10.10
2019-02-12T04:12:14.614Z,9.80
2019-02-12T04:15:53.726Z,9.70
2019-02-12T04:19:09.021Z,10.30
2019-02-12T04:25:44.222Z,9.70
2019-02-12T04:28:59.149Z,10.70
2019-02-12T04:32:03.251Z,10.47
2019-02-12T04:34:54.451Z,10.13
2019-02-12T04:37:56.042Z,10.43
2019-02-12T04:41:11.293Z,10.87
2019-02-12T04:44:41.637Z,10.90
2019-02-12T04:48:05.715Z,12.23
2019-02-12T04:58:02.627Z,11.00
2019-02-12T05:01:13.687Z,11.83
2019-02-12T05:13:27.228Z,11.30
2019-02-12T05:32:48.994Z,11.77
2019-02-12T05:35:17.882Z,14.07
2019-02-12T05:37:45.848Z,12.80
2019-02-12T05:40:13.711Z,11.57
2019-02-12T05:42:41.679Z,12.47
2019-02-12T05:45:12.886Z,12.77
2019-02-12T05:47:42.693Z,12.77
2019-02-12T05:50:11.284Z,13.63
2019-02-12T05:52:39.276Z,12.60
2019-02-12T05:55:07.478Z,12.57
2019-02-12T05:57:35.543Z,13.30
2019-02-12T06:00:03.807Z,12.60
2019-02-12T06:02:31.945Z,13.10
2019-02-12T06:05:00.106Z,12.73
2019-02-12T06:07:28.115Z,13.40
2019-02-12T06:10:00.037Z,15.27
2019-02-12T06:12:35.366Z,12.63
2019-02-12T06:15:03.320Z,14.13
2019-02-12T06:17:36.147Z,14.50
2019-02-12T06:20:27.352Z,13.27
2019-02-12T06:23:04.228Z,13.80
2019-02-12T06:25:32.459Z,13.60
2019-02-12T06:28:00.417Z,14.03
2019-02-12T06:30:48.483Z,13.00
2019-02-12T06:33:16.476Z,12.67
2019-02-12T06:35:44.429Z,13.70
2019-02-12T06:38:14.484Z,12.13
2019-02-12T06:40:44.809Z,12.10
2019-02-12T06:43:12.838Z,13.80
2019-02-12T06:45:40.788Z,12.87
2019-02-12T06:48:08.784Z,13.47
2019-02-12T06:50:39.446Z,14.00
2019-02-12T06:53:12.517Z,13.47
2019-02-12T06:55:59.272Z,13.53
2019-02-12T06:58:27.190Z,13.23
2019-02-12T07:00:55.123Z,13.80
2019-02-12T07:03:25.259Z,13.53
2019-02-12T07:05:59.911Z,13.70
2019-02-12T07:08:39.223Z,12.90
2019-02-12T07:11:11.643Z,13.97
2019-02-12T07:13:43.364Z,12.30
2019-02-12T07:16:17.834Z,12.13
2019-02-12T07:18:50.165Z,12.63
2019-02-12T07:21:56.629Z,12.80
2019-02-12T07:24:46.814Z,12.97
2019-02-12T07:27:33.820Z,13.17
2019-02-12T07:30:19.694Z,11.80
2019-02-12T07:33:19.424Z,13.47
2019-02-12T07:36:06.516Z,13.73
2019-02-12T07:38:42.126Z,12.20
2019-02-12T07:41:26.880Z,11.70
2019-02-12T07:44:07.594Z,13.80
2019-02-12T07:46:57.627Z,12.13
2019-02-12T07:49:37.431Z,12.07
2019-02-12T07:52:12.052Z,11.00
2019-02-12T07:54:55.184Z,12.43
2019-02-12T07:57:31.184Z,13.00
2019-02-12T08:00:10.925Z,12.53
2019-02-12T08:02:57.499Z,13.03
2019-02-12T08:05:44.482Z,12.70
2019-02-12T08:08:30.009Z,12.60
2019-02-12T08:11:09.432Z,11.47
2019-02-12T08:13:59.492Z,12.63
2019-02-12T08:16:50.018Z,12.13
2019-02-12T08:19:31.160Z,12.27
2019-02-12T08:22:17.085Z,11.40
2019-02-12T08:25:07.491Z,12.10
2019-02-12T08:28:00.351Z,11.07
2019-02-12T08:30:33.832Z,12.07
2019-02-12T08:33:20.999Z,11.37
2019-02-12T08:36:00.915Z,11.20
2019-02-12T08:38:45.582Z,11.00
2019-02-12T08:41:38.632Z,11.60
2019-02-12T08:44:25.599Z,11.23
2019-02-12T08:47:21.540Z,11.20
2019-02-12T08:49:54.881Z,12.03
2019-02-12T08:52:47.677Z,11.97
2019-02-12T08:55:18.950Z,11.17
2019-02-12T08:57:58.411Z,11.70
2019-02-12T09:00:36.535Z,10.80
2019-02-12T09:03:36.331Z,10.60
2019-02-12T09:06:10.405Z,10.70
2019-02-12T09:08:49.284Z,10.13
2019-02-12T09:11:51.625Z,11.83
2019-02-12T09:14:32.986Z,10.47
2019-02-12T09:17:20.040Z,10.47
2019-02-12T09:20:09.882Z,10.70
2019-02-12T09:22:47.391Z,10.87
2019-02-12T09:25:34.402Z,10.70
2019-02-12T09:28:27.179Z,11.00
2019-02-12T09:31:12.955Z,10.57
2019-02-12T09:34:12.134Z,9.00
2019-02-12T09:36:51.939Z,9.50
2019-02-12T09:39:41.707Z,10.30
2019-02-12T09:42:28.876Z,9.37
2019-02-12T09:45:12.210Z,8.73
2019-02-12T09:48:14.380Z,9.13
2019-02-12T09:51:04.201Z,8.30
2019-02-12T09:53:54.024Z,9.23
2019-02-12T09:56:43.902Z,8.13
2019-02-12T09:59:24.277Z,7.90
2019-02-12T10:02:01.997Z,7.33
2019-02-12T10:04:49.082Z,8.10
2019-02-12T10:07:36.254Z,6.30
2019-02-12T10:10:18.934Z,5.83
2019-02-12T10:12:54.419Z,6.03
2019-02-12T10:15:40.377Z,6.50
2019-02-12T10:18:14.639Z,5.37
2019-02-12T10:21:01.635Z,6.10
2019-02-12T10:23:52.739Z,7.17
2019-02-12T10:26:20.718Z,5.73
2019-02-12T10:29:08.869Z,6.57
2019-02-12T10:31:45.387Z,6.03
2019-02-12T10:34:14.129Z,7.40
2019-02-12T10:36:42.122Z,6.43
2019-02-12T10:39:15.895Z,7.03
2019-02-12T10:41:43.924Z,7.90
2019-02-12T10:44:11.832Z,7.60
2019-02-12T10:46:39.751Z,7.63
2019-02-12T10:49:07.604Z,7.30
2019-02-12T10:51:35.530Z,7.70
2019-02-12T10:54:03.364Z,7.40
2019-02-12T10:56:31.228Z,7.10
2019-02-12T10:58:59.386Z,7.03
2019-02-12T11:01:27.317Z,7.97
2019-02-12T11:03:55.279Z,7.90
2019-02-12T11:06:23.173Z,7.33
2019-02-12T11:08:51.115Z,6.30
2019-02-12T11:11:19.083Z,8.03
2019-02-12T11:13:46.971Z,7.00
2019-02-12T11:16:14.892Z,6.90
2019-02-12T11:18:42.816Z,6.90
2019-02-12T11:21:12.075Z,6.63
2019-02-12T11:23:40.214Z,6.30
2019-02-12T11:26:08.153Z,6.30
2019-02-12T11:28:36.017Z,6.00
2019-02-12T11:31:04.538Z,6.10
2019-02-12T11:33:32.379Z,6.87
2019-02-12T11:36:00.336Z,6.83
2019-02-12T11:38:28.307Z,5.53
2019-02-12T11:40:56.269Z,6.30
2019-02-12T11:43:26.261Z,6.47
2019-02-12T11:45:54.349Z,6.80
2019-02-12T11:48:22.261Z,6.07
2019-02-12T11:50:50.120Z,6.03
2019-02-12T11:53:18.110Z,5.73
2019-02-12T11:55:46.050Z,5.90
2019-02-12T11:58:14.127Z,6.63
2019-02-12T12:00:59.816Z,5.63
2019-02-12T12:03:28.253Z,6.57
2019-02-12T12:05:56.243Z,6.50
2019-02-12T12:08:24.298Z,6.40
2019-02-12T12:10:52.270Z,5.57
2019-02-12T12:13:20.131Z,6.67
2019-02-12T12:15:48.086Z,5.43
2019-02-12T12:18:16.079Z,5.93
2019-02-12T12:20:44.003Z,5.73
2019-02-12T12:23:15.584Z,6.00
2019-02-12T12:25:43.520Z,4.90
2019-02-12T12:28:17.804Z,5.03
2019-02-12T12:30:45.807Z,5.23
2019-02-12T12:33:13.700Z,4.13
2019-02-12T12:35:42.236Z,4.57
2019-02-12T12:38:10.399Z,4.30
2019-02-12T12:40:38.782Z,4.00
2019-02-12T12:43:07.576Z,4.30
2019-02-12T12:45:35.518Z,3.87
2019-02-12T12:48:04.032Z,3.73
2019-02-12T12:50:32.076Z,3.20
2019-02-12T12:53:00.065Z,3.10
2019-02-12T12:55:27.926Z,2.40
2019-02-12T12:57:57.313Z,2.90
2019-02-12T13:00:25.629Z,2.70
2019-02-12T13:02:53.501Z,2.40
2019-02-12T13:05:21.577Z,2.60
2019-02-12T13:07:49.447Z,2.73
2019-02-12T13:10:17.405Z,2.30
2019-02-12T13:12:45.678Z,2.77
2019-02-12T13:15:14.075Z,2.70
2019-02-12T13:17:42.733Z,2.80
2019-02-12T13:20:11.779Z,2.20
2019-02-12T13:22:39.923Z,2.40
2019-02-12T13:25:08.983Z,1.97
2019-02-12T13:27:37.002Z,2.00
2019-02-12T13:30:06.687Z,3.10
2019-02-12T13:32:35.197Z,2.10
2019-02-12T13:35:03.149Z,2.33
2019-02-12T13:37:31.014Z,2.20
2019-02-12T13:39:59.656Z,2.13
2019-02-12T13:42:27.834Z,1.83
2019-02-12T13:44:56.176Z,1.70
2019-02-12T13:47:24.315Z,2.30
2019-02-12T13:49:52.552Z,2.40
2019-02-12T13:52:20.490Z,2.03
2019-02-12T13:54:48.422Z,2.20
2019-02-12T13:57:16.239Z,2.63
2019-02-12T13:59:44.189Z,2.10
2019-02-12T14:02:12.337Z,2.40
2019-02-12T14:04:40.257Z,2.30
2019-02-12T14:07:08.289Z,2.40
2019-02-12T14:09:36.339Z,2.73
2019-02-12T14:12:04.304Z,2.33
2019-02-12T14:14:32.618Z,2.40
2019-02-12T14:17:02.026Z,2.40
2019-02-12T14:19:29.970Z,2.60
2019-02-12T14:21:58.138Z,3.70
2019-02-12T14:24:26.158Z,2.73
2019-02-12T14:26:54.275Z,2.63
2019-02-12T14:29:22.339Z,2.33
2019-02-12T14:31:53.023Z,2.13
2019-02-12T14:34:19.923Z,2.40
2019-02-12T14:36:47.967Z,2.53
2019-02-12T14:39:15.942Z,2.30
2019-02-12T14:41:43.852Z,3.00
2019-02-12T14:44:11.753Z,2.43
2019-02-12T14:46:39.799Z,2.40
2019-02-12T14:49:08.064Z,2.73
2019-02-12T14:51:36.228Z,4.17
2019-02-12T14:54:04.256Z,2.90
2019-02-12T14:56:32.142Z,2.90
2019-02-12T14:59:00.055Z,2.43
2019-02-12T15:01:28.000Z,3.10
2019-02-12T15:03:56.091Z,2.27
2019-02-12T15:06:24.235Z,2.67
2019-02-12T15:08:52.254Z,3.00
2019-02-12T15:11:20.200Z,2.70
2019-02-12T15:13:48.095Z,2.50
2019-02-12T15:16:16.025Z,2.50
2019-02-12T15:18:43.982Z,2.20
2019-02-12T15:21:11.908Z,2.10
2019-02-12T15:23:40.257Z,2.23
2019-02-12T15:26:08.281Z,2.23
2019-02-12T15:28:36.257Z,2.73
2019-02-12T15:31:04.216Z,2.33
2019-02-12T15:33:32.085Z,2.53
2019-02-12T15:36:00.132Z,2.40
2019-02-12T15:38:28.422Z,2.47
2019-02-12T15:40:56.338Z,2.67
2019-02-12T15:43:24.455Z,2.57
2019-02-12T15:45:53.476Z,2.77
2019-02-12T15:48:21.489Z,2.90
2019-02-12T15:50:49.521Z,2.70
2019-02-12T15:53:17.486Z,3.00
2019-02-12T15:55:51.207Z,3.77
2019-02-12T15:58:14.999Z,3.23
2019-02-12T16:00:43.442Z,3.63
2019-02-12T16:03:11.402Z,3.57
2019-02-12T16:05:39.571Z,3.53
2019-02-12T16:08:09.165Z,3.37
2019-02-12T16:10:37.658Z,3.90
2019-02-12T16:13:06.794Z,3.87
2019-02-12T16:15:34.880Z,4.20
2019-02-12T16:18:02.937Z,3.63
2019-02-12T16:20:31.400Z,3.70
2019-02-12T16:23:00.662Z,3.70
2019-02-12T16:25:28.975Z,4.27
2019-02-12T16:27:56.842Z,3.63
2019-02-12T16:30:24.722Z,3.70
2019-02-12T16:32:52.599Z,3.80
2019-02-12T16:35:20.607Z,3.67
2019-02-12T16:37:48.571Z,5.30
2019-02-12T16:40:17.237Z,6.00
2019-02-12T16:42:45.570Z,4.20
2019-02-12T16:45:17.718Z,3.57
2019-02-12T16:47:45.865Z,4.57
2019-02-12T16:50:13.872Z,4.97
2019-02-12T16:52:41.907Z,4.83
2019-02-12T16:55:14.693Z,4.70
2019-02-12T16:57:42.917Z,4.77
2019-02-12T17:00:12.261Z,4.80
2019-02-12T17:02:40.212Z,5.67
2019-02-12T17:05:09.285Z,5.87
2019-02-12T17:07:47.226Z,5.53
2019-02-12T17:10:15.296Z,4.37
2019-02-12T17:12:44.836Z,4.80
2019-02-12T17:15:13.150Z,4.50
2019-02-12T17:17:41.343Z,4.00
2019-02-12T17:20:10.893Z,4.83
2019-02-12T17:22:38.857Z,4.00
2019-02-12T17:25:08.702Z,4.10
2019-02-12T17:27:37.062Z,3.63
2019-02-12T17:30:05.682Z,4.50
2019-02-12T17:32:33.584Z,4.80
2019-02-12T17:35:01.980Z,4.30
2019-02-12T17:37:30.571Z,4.43
2019-02-12T17:39:59.180Z,4.70
2019-02-12T17:42:27.135Z,4.10
2019-02-12T17:44:58.432Z,5.20
2019-02-12T17:47:26.752Z,5.60
2019-02-12T17:49:54.627Z,4.67
2019-02-12T17:52:23.863Z,5.40
2019-02-12T17:54:52.539Z,5.03
2019-02-12T17:57:20.871Z,6.00
2019-02-12T17:59:48.752Z,6.70
2019-02-12T18:02:16.685Z,6.07
2019-02-12T18:04:44.642Z,6.70
2019-02-12T18:07:12.676Z,5.63
2019-02-12T18:09:40.604Z,6.03
2019-02-12T18:12:08.521Z,6.60
2019-02-12T18:14:36.658Z,5.87
2019-02-12T18:17:04.553Z,6.23
2019-02-12T18:19:32.425Z,5.50
2019-02-12T18:22:00.298Z,6.00
2019-02-12T18:24:28.263Z,6.17
2019-02-12T18:26:56.145Z,5.40
2019-02-12T18:29:24.033Z,4.90
2019-02-12T18:31:52.754Z,5.70
2019-02-12T18:34:20.704Z,4.57
2019-02-12T18:36:48.547Z,5.57
2019-02-12T18:39:16.465Z,6.07
2019-02-12T18:41:44.671Z,5.17
2019-02-12T18:44:12.515Z,4.50
2019-02-12T18:46:40.447Z,5.10
2019-02-12T18:49:08.708Z,5.00
2019-02-12T18:51:36.640Z,4.73
2019-02-12T18:54:04.524Z,5.73
2019-02-12T18:56:32.576Z,5.17
2019-02-12T18:59:00.493Z,5.83
2019-02-12T19:01:28.429Z,6.00
2019-02-12T19:03:56.380Z,7.20
2019-02-12T19:06:24.323Z,6.27
2019-02-12T19:08:52.715Z,6.70
2019-02-12T19:11:20.566Z,6.30
2019-02-12T19:13:48.825Z,7.63
2019-02-12T19:16:16.913Z,6.43
2019-02-12T19:18:44.846Z,6.60
2019-02-12T19:21:12.690Z,7.53
2019-02-12T19:23:40.710Z,6.60
2019-02-12T19:26:09.140Z,6.30
2019-02-12T19:28:37.154Z,6.10
2019-02-12T19:31:05.284Z,6.67
2019-02-12T19:33:34.325Z,7.37
2019-02-12T19:36:02.257Z,6.77
2019-02-12T19:38:30.106Z,7.13
2019-02-12T19:40:57.980Z,7.10
2019-02-12T19:43:27.547Z,7.03
2019-02-12T19:45:55.604Z,7.20
2019-02-12T19:48:23.497Z,8.90
2019-02-12T19:50:51.697Z,7.70
2019-02-12T19:53:19.541Z,8.13
2019-02-12T19:55:47.827Z,7.83
2019-02-12T19:58:15.724Z,7.13
2019-02-12T20:00:43.608Z,7.30
2019-02-12T20:03:11.518Z,6.10
2019-02-12T20:05:39.802Z,6.57
2019-02-12T20:08:07.738Z,6.60
2019-02-12T20:10:35.619Z,6.77
2019-02-12T20:13:03.620Z,6.10
2019-02-12T20:15:31.805Z,6.50
2019-02-12T20:17:59.792Z,6.10
2019-02-12T20:20:27.702Z,6.37
2019-02-12T20:22:55.855Z,7.00
2019-02-12T20:25:23.709Z,6.10
2019-02-12T20:27:51.570Z,6.27
2019-02-12T20:30:19.477Z,7.43
2019-02-12T20:32:47.318Z,7.70
2019-02-12T20:35:15.188Z,7.70
2019-02-12T20:37:43.113Z,7.03
2019-02-12T20:40:11.486Z,6.50
2019-02-12T20:42:39.448Z,7.17
2019-02-12T20:45:08.312Z,7.03
2019-02-12T20:47:36.513Z,6.90
2019-02-12T20:50:04.995Z,7.00
2019-02-12T20:52:32.933Z,7.53
2019-02-12T20:55:00.878Z,7.87
2019-02-12T20:57:28.717Z,7.63
2019-02-12T20:59:56.651Z,7.30
2019-02-12T21:02:24.545Z,7.77
2019-02-12T21:04:52.593Z,8.73
2019-02-12T21:07:20.552Z,8.00
2019-02-12T21:09:52.903Z,9.37
2019-02-12T21:12:21.349Z,8.43
2019-02-12T21:14:49.203Z,8.43
2019-02-12T21:17:17.117Z,9.33
2019-02-12T21:19:45.057Z,9.77
2019-02-12T21:22:12.994Z,9.47
2019-02-12T21:24:40.857Z,9.47
2019-02-12T21:27:08.992Z,9.90
2019-02-12T21:29:36.938Z,8.57
2019-02-12T21:32:04.889Z,7.97
2019-02-12T21:34:32.807Z,9.57
2019-02-12T21:37:00.725Z,9.50
2019-02-12T21:39:28.613Z,8.33
2019-02-12T21:41:56.677Z,7.87
2019-02-12T21:44:24.519Z,9.00
2019-02-12T21:46:54.944Z,7.60
2019-02-12T21:49:22.915Z,7.50
2019-02-12T21:51:50.839Z,6.93
2019-02-12T21:54:18.738Z,7.23
2019-02-12T21:56:46.646Z,6.83
2019-02-12T21:59:14.504Z,5.97
2019-02-12T22:01:42.384Z,7.20
2019-02-12T22:04:10.614Z,7.70
2019-02-12T22:06:38.492Z,7.50
2019-02-12T22:09:06.542Z,6.67
2019-02-12T22:11:34.393Z,7.90
2019-02-12T22:14:02.328Z,7.50
2019-02-12T22:16:31.733Z,7.30
2019-02-12T22:18:59.579Z,8.03
2019-02-12T22:21:27.446Z,8.53
2019-02-12T22:23:55.363Z,8.13
2019-02-12T22:26:23.222Z,8.13
2019-02-12T22:28:51.178Z,7.37
2019-02-12T22:31:19.310Z,6.80
2019-02-12T22:33:47.191Z,8.27
2019-02-12T22:36:15.092Z,8.47
2019-02-12T22:38:42.939Z,7.80
2019-02-12T22:41:10.788Z,8.10
2019-02-12T22:43:38.708Z,7.40
2019-02-12T22:46:06.610Z,8.43
2019-02-12T22:48:34.448Z,7.93
2019-02-12T22:51:02.331Z,7.27
2019-02-12T22:53:30.166Z,8.17
2019-02-12T22:55:58.124Z,8.30
2019-02-12T22:58:26.011Z,6.77
2019-02-12T23:01:06.915Z,7.30
2019-02-12T23:03:35.473Z,6.97
2019-02-12T23:06:04.086Z,7.60
2019-02-12T23:08:32.243Z,7.20
2019-02-12T23:11:00.228Z,6.43
2019-02-12T23:13:28.257Z,6.77
2019-02-12T23:15:56.109Z,5.70
2019-02-12T23:18:24.042Z,6.20
2019-02-12T23:20:51.967Z,5.60
2019-02-12T23:23:19.879Z,6.60
2019-02-12T23:25:47.769Z,6.13
2019-02-12T23:28:15.630Z,5.90
2019-02-12T23:30:43.504Z,6.80
2019-02-12T23:33:11.416Z,5.93
2019-02-12T23:35:39.248Z,6.50
2019-02-12T23:38:07.139Z,6.50
2019-02-12T23:40:35.028Z,6.83
2019-02-12T23:43:02.905Z,7.00
2019-02-12T23:45:30.784Z,6.90
2019-02-12T23:47:58.639Z,6.43
2019-02-12T23:50:26.656Z,6.60
2019-02-12T23:52:54.571Z,7.50
2019-02-12T23:55:22.580Z,7.30
2019-02-12T23:57:51.184Z,9.00
